sensor_id;sensor_type;location;lat;lon;timestamp;P1;durP1;ratioP1;P2;durP2;ratioP2
15931;SDS011;8065;49.520;11.284;2022-08-19T00:00:47;23.90;;;21.70;;
15931;SDS011;8065;49.520;11.284;2022-08-19T00:03:15;26.73;;;24.23;;
15931;SDS011;8065;49.520;11.284;2022-08-19T00:05:41;25.20;;;22.70;;
15931;SDS011;8065;49.520;11.284;2022-08-19T00:08:09;27.73;;;25.13;;
15931;SDS011;8065;49.520;11.284;2022-08-19T00:10:36;22.60;;;20.60;;
15931;SDS011;8065;49.520;11.284;2022-08-19T00:13:02;28.03;;;25.10;;
15931;SDS011;8065;49.520;11.284;2022-08-19T00:15:29;27.77;;;25.13;;
15931;SDS011;8065;49.520;11.284;2022-08-19T00:17:56;25.53;;;23.17;;
15931;SDS011;8065;49.520;11.284;2022-08-19T00:20:22;27.70;;;25.00;;
15931;SDS011;8065;49.520;11.284;2022-08-19T00:22:49;26.90;;;24.30;;
15931;SDS011;8065;49.520;11.284;2022-08-19T00:25:18;26.67;;;24.20;;
15931;SDS011;8065;49.520;11.284;2022-08-19T00:27:44;25.57;;;23.17;;
15931;SDS011;8065;49.520;11.284;2022-08-19T00:30:12;25.07;;;22.87;;
15931;SDS011;8065;49.520;11.284;2022-08-19T00:32:39;28.17;;;25.37;;
15931;SDS011;8065;49.520;11.284;2022-08-19T00:35:06;25.23;;;22.73;;
15931;SDS011;8065;49.520;11.284;2022-08-19T00:37:34;29.17;;;26.37;;
15931;SDS011;8065;49.520;11.284;2022-08-19T00:40:01;26.23;;;23.80;;
15931;SDS011;8065;49.520;11.284;2022-08-19T00:42:33;25.93;;;23.47;;
15931;SDS011;8065;49.520;11.284;2022-08-19T00:44:59;30.10;;;27.03;;
15931;SDS011;8065;49.520;11.284;2022-08-19T00:47:26;28.00;;;25.20;;
15931;SDS011;8065;49.520;11.284;2022-08-19T00:49:53;24.77;;;22.43;;
15931;SDS011;8065;49.520;11.284;2022-08-19T00:52:23;27.57;;;25.03;;
15931;SDS011;8065;49.520;11.284;2022-08-19T00:54:55;27.37;;;24.77;;
15931;SDS011;8065;49.520;11.284;2022-08-19T00:57:22;26.37;;;23.90;;
15931;SDS011;8065;49.520;11.284;2022-08-19T00:59:54;26.07;;;23.53;;
15931;SDS011;8065;49.520;11.284;2022-08-19T01:02:24;26.17;;;23.73;;
15931;SDS011;8065;49.520;11.284;2022-08-19T01:04:51;26.57;;;23.87;;
15931;SDS011;8065;49.520;11.284;2022-08-19T01:07:17;26.40;;;23.77;;
15931;SDS011;8065;49.520;11.284;2022-08-19T01:09:44;25.73;;;23.23;;
15931;SDS011;8065;49.520;11.284;2022-08-19T01:12:11;28.60;;;25.77;;
15931;SDS011;8065;49.520;11.284;2022-08-19T01:14:37;24.83;;;22.43;;
15931;SDS011;8065;49.520;11.284;2022-08-19T01:17:07;30.13;;;27.13;;
15931;SDS011;8065;49.520;11.284;2022-08-19T01:19:36;30.17;;;27.27;;
15931;SDS011;8065;49.520;11.284;2022-08-19T01:22:06;32.33;;;29.33;;
15931;SDS011;8065;49.520;11.284;2022-08-19T01:24:39;30.17;;;27.17;;
15931;SDS011;8065;49.520;11.284;2022-08-19T01:27:06;28.93;;;26.33;;
15931;SDS011;8065;49.520;11.284;2022-08-19T01:29:33;30.00;;;26.97;;
15931;SDS011;8065;49.520;11.284;2022-08-19T01:32:03;24.10;;;21.90;;
15931;SDS011;8065;49.520;11.284;2022-08-19T01:34:30;25.60;;;23.20;;
15931;SDS011;8065;49.520;11.284;2022-08-19T01:36:59;24.37;;;22.07;;
15931;SDS011;8065;49.520;11.284;2022-08-19T01:39:26;24.63;;;22.27;;
15931;SDS011;8065;49.520;11.284;2022-08-19T01:41:54;25.80;;;23.40;;
15931;SDS011;8065;49.520;11.284;2022-08-19T01:44:21;23.53;;;21.33;;
15931;SDS011;8065;49.520;11.284;2022-08-19T01:46:49;23.10;;;21.00;;
15931;SDS011;8065;49.520;11.284;2022-08-19T01:49:18;25.13;;;22.83;;
15931;SDS011;8065;49.520;11.284;2022-08-19T01:51:46;23.10;;;21.03;;
15931;SDS011;8065;49.520;11.284;2022-08-19T01:54:14;22.27;;;20.37;;
15931;SDS011;8065;49.520;11.284;2022-08-19T01:56:42;22.50;;;20.50;;
15931;SDS011;8065;49.520;11.284;2022-08-19T01:59:11;24.87;;;22.37;;
15931;SDS011;8065;49.520;11.284;2022-08-19T02:01:40;22.03;;;19.93;;
15931;SDS011;8065;49.520;11.284;2022-08-19T02:04:07;22.87;;;20.67;;
15931;SDS011;8065;49.520;11.284;2022-08-19T02:06:34;21.80;;;19.73;;
15931;SDS011;8065;49.520;11.284;2022-08-19T02:09:01;21.67;;;19.77;;
15931;SDS011;8065;49.520;11.284;2022-08-19T02:11:32;21.93;;;19.87;;
15931;SDS011;8065;49.520;11.284;2022-08-19T02:14:00;21.67;;;19.67;;
15931;SDS011;8065;49.520;11.284;2022-08-19T02:16:30;24.03;;;21.67;;
15931;SDS011;8065;49.520;11.284;2022-08-19T02:18:57;21.73;;;19.87;;
15931;SDS011;8065;49.520;11.284;2022-08-19T02:21:25;21.17;;;19.13;;
15931;SDS011;8065;49.520;11.284;2022-08-19T02:23:52;25.23;;;22.83;;
15931;SDS011;8065;49.520;11.284;2022-08-19T02:26:20;21.33;;;19.20;;
15931;SDS011;8065;49.520;11.284;2022-08-19T02:28:47;21.97;;;19.77;;
15931;SDS011;8065;49.520;11.284;2022-08-19T02:31:15;21.87;;;19.87;;
15931;SDS011;8065;49.520;11.284;2022-08-19T02:33:45;23.73;;;21.63;;
15931;SDS011;8065;49.520;11.284;2022-08-19T02:36:14;21.57;;;19.47;;
15931;SDS011;8065;49.520;11.284;2022-08-19T02:38:42;23.13;;;20.93;;
15931;SDS011;8065;49.520;11.284;2022-08-19T02:41:11;25.67;;;23.37;;
15931;SDS011;8065;49.520;11.284;2022-08-19T02:43:39;26.13;;;23.63;;
15931;SDS011;8065;49.520;11.284;2022-08-19T02:46:10;23.80;;;21.60;;
15931;SDS011;8065;49.520;11.284;2022-08-19T02:48:38;26.37;;;22.93;;
15931;SDS011;8065;49.520;11.284;2022-08-19T02:51:07;26.23;;;23.77;;
15931;SDS011;8065;49.520;11.284;2022-08-19T02:53:33;24.33;;;21.73;;
15931;SDS011;8065;49.520;11.284;2022-08-19T02:56:00;26.93;;;24.30;;
15931;SDS011;8065;49.520;11.284;2022-08-19T02:58:26;26.03;;;23.30;;
15931;SDS011;8065;49.520;11.284;2022-08-19T03:00:53;23.93;;;21.63;;
15931;SDS011;8065;49.520;11.284;2022-08-19T03:03:21;26.13;;;23.70;;
15931;SDS011;8065;49.520;11.284;2022-08-19T03:05:48;26.73;;;24.23;;
15931;SDS011;8065;49.520;11.284;2022-08-19T03:08:16;25.83;;;23.23;;
15931;SDS011;8065;49.520;11.284;2022-08-19T03:10:45;22.40;;;20.30;;
15931;SDS011;8065;49.520;11.284;2022-08-19T03:13:12;20.53;;;18.73;;
15931;SDS011;8065;49.520;11.284;2022-08-19T03:15:41;26.23;;;23.73;;
15931;SDS011;8065;49.520;11.284;2022-08-19T03:18:08;25.07;;;22.73;;
15931;SDS011;8065;49.520;11.284;2022-08-19T03:20:39;20.73;;;18.93;;
15931;SDS011;8065;49.520;11.284;2022-08-19T03:23:07;25.27;;;22.73;;
15931;SDS011;8065;49.520;11.284;2022-08-19T03:25:37;23.70;;;21.20;;
15931;SDS011;8065;49.520;11.284;2022-08-19T03:28:05;22.40;;;20.30;;
15931;SDS011;8065;49.520;11.284;2022-08-19T03:30:32;22.07;;;19.80;;
15931;SDS011;8065;49.520;11.284;2022-08-19T03:32:59;26.00;;;23.50;;
15931;SDS011;8065;49.520;11.284;2022-08-19T03:35:25;25.50;;;22.73;;
15931;SDS011;8065;49.520;11.284;2022-08-19T03:37:52;23.20;;;20.90;;
15931;SDS011;8065;49.520;11.284;2022-08-19T03:40:18;23.60;;;21.13;;
15931;SDS011;8065;49.520;11.284;2022-08-19T03:42:47;23.23;;;20.83;;
15931;SDS011;8065;49.520;11.284;2022-08-19T03:45:14;23.03;;;20.70;;
15931;SDS011;8065;49.520;11.284;2022-08-19T03:47:40;20.27;;;18.47;;
15931;SDS011;8065;49.520;11.284;2022-08-19T03:50:07;25.70;;;22.93;;
15931;SDS011;8065;49.520;11.284;2022-08-19T03:52:34;22.80;;;20.47;;
15931;SDS011;8065;49.520;11.284;2022-08-19T03:55:01;24.63;;;22.13;;
15931;SDS011;8065;49.520;11.284;2022-08-19T03:57:27;24.27;;;21.87;;
15931;SDS011;8065;49.520;11.284;2022-08-19T03:59:55;24.47;;;22.07;;
15931;SDS011;8065;49.520;11.284;2022-08-19T04:02:22;24.07;;;21.77;;
15931;SDS011;8065;49.520;11.284;2022-08-19T04:04:48;24.93;;;22.37;;
15931;SDS011;8065;49.520;11.284;2022-08-19T04:07:15;23.30;;;21.17;;
15931;SDS011;8065;49.520;11.284;2022-08-19T04:09:43;21.63;;;19.53;;
15931;SDS011;8065;49.520;11.284;2022-08-19T04:12:09;22.53;;;20.43;;
15931;SDS011;8065;49.520;11.284;2022-08-19T04:14:36;27.03;;;24.43;;
15931;SDS011;8065;49.520;11.284;2022-08-19T04:17:04;25.47;;;22.93;;
15931;SDS011;8065;49.520;11.284;2022-08-19T04:19:31;23.07;;;20.77;;
15931;SDS011;8065;49.520;11.284;2022-08-19T04:21:58;25.10;;;22.53;;
15931;SDS011;8065;49.520;11.284;2022-08-19T04:24:25;23.03;;;20.90;;
15931;SDS011;8065;49.520;11.284;2022-08-19T04:26:52;24.07;;;21.50;;
15931;SDS011;8065;49.520;11.284;2022-08-19T04:29:19;25.17;;;22.67;;
15931;SDS011;8065;49.520;11.284;2022-08-19T04:31:49;24.47;;;22.23;;
15931;SDS011;8065;49.520;11.284;2022-08-19T04:34:20;24.93;;;22.63;;
15931;SDS011;8065;49.520;11.284;2022-08-19T04:36:49;25.63;;;23.00;;
15931;SDS011;8065;49.520;11.284;2022-08-19T04:39:18;28.30;;;25.60;;
15931;SDS011;8065;49.520;11.284;2022-08-19T04:41:45;27.07;;;24.37;;
15931;SDS011;8065;49.520;11.284;2022-08-19T04:44:30;28.73;;;25.83;;
15931;SDS011;8065;49.520;11.284;2022-08-19T04:46:57;25.10;;;22.73;;
15931;SDS011;8065;49.520;11.284;2022-08-19T04:49:25;24.57;;;22.07;;
15931;SDS011;8065;49.520;11.284;2022-08-19T04:51:52;22.37;;;20.27;;
15931;SDS011;8065;49.520;11.284;2022-08-19T04:54:21;24.60;;;22.30;;
15931;SDS011;8065;49.520;11.284;2022-08-19T04:56:50;28.13;;;25.43;;
15931;SDS011;8065;49.520;11.284;2022-08-19T04:59:17;25.93;;;23.43;;
15931;SDS011;8065;49.520;11.284;2022-08-19T05:01:45;24.97;;;22.43;;
15931;SDS011;8065;49.520;11.284;2022-08-19T05:04:15;25.40;;;22.90;;
15931;SDS011;8065;49.520;11.284;2022-08-19T05:06:45;28.27;;;25.50;;
15931;SDS011;8065;49.520;11.284;2022-08-19T05:09:13;29.17;;;26.27;;
15931;SDS011;8065;49.520;11.284;2022-08-19T05:11:40;28.43;;;25.53;;
15931;SDS011;8065;49.520;11.284;2022-08-19T05:14:07;29.83;;;27.03;;
15931;SDS011;8065;49.520;11.284;2022-08-19T05:16:35;28.27;;;25.50;;
15931;SDS011;8065;49.520;11.284;2022-08-19T05:19:01;28.30;;;25.40;;
15931;SDS011;8065;49.520;11.284;2022-08-19T05:21:47;23.07;;;20.87;;
15931;SDS011;8065;49.520;11.284;2022-08-19T05:24:31;24.60;;;22.20;;
15931;SDS011;8065;49.520;11.284;2022-08-19T05:26:59;25.17;;;22.73;;
15931;SDS011;8065;49.520;11.284;2022-08-19T05:29:27;30.00;;;27.10;;
15931;SDS011;8065;49.520;11.284;2022-08-19T05:31:54;29.73;;;26.63;;
15931;SDS011;8065;49.520;11.284;2022-08-19T05:34:22;24.00;;;21.80;;
15931;SDS011;8065;49.520;11.284;2022-08-19T05:36:51;24.00;;;21.70;;
15931;SDS011;8065;49.520;11.284;2022-08-19T05:39:22;23.80;;;21.50;;
15931;SDS011;8065;49.520;11.284;2022-08-19T05:41:51;24.50;;;22.10;;
15931;SDS011;8065;49.520;11.284;2022-08-19T05:44:22;22.50;;;20.40;;
15931;SDS011;8065;49.520;11.284;2022-08-19T05:46:49;22.83;;;20.40;;
15931;SDS011;8065;49.520;11.284;2022-08-19T05:49:18;22.60;;;20.40;;
15931;SDS011;8065;49.520;11.284;2022-08-19T05:51:46;22.33;;;20.30;;
15931;SDS011;8065;49.520;11.284;2022-08-19T05:54:14;20.17;;;18.20;;
15931;SDS011;8065;49.520;11.284;2022-08-19T05:56:42;22.17;;;20.10;;
15931;SDS011;8065;49.520;11.284;2022-08-19T05:59:09;19.87;;;18.07;;
15931;SDS011;8065;49.520;11.284;2022-08-19T06:01:37;19.93;;;18.13;;
15931;SDS011;8065;49.520;11.284;2022-08-19T06:04:04;20.13;;;18.23;;
15931;SDS011;8065;49.520;11.284;2022-08-19T06:06:31;19.97;;;18.03;;
15931;SDS011;8065;49.520;11.284;2022-08-19T06:08:59;24.30;;;22.00;;
15931;SDS011;8065;49.520;11.284;2022-08-19T06:11:33;19.50;;;17.80;;
15931;SDS011;8065;49.520;11.284;2022-08-19T06:14:03;20.37;;;18.47;;
15931;SDS011;8065;49.520;11.284;2022-08-19T06:16:33;22.87;;;20.57;;
15931;SDS011;8065;49.520;11.284;2022-08-19T06:19:00;23.27;;;20.93;;
15931;SDS011;8065;49.520;11.284;2022-08-19T06:21:29;24.83;;;22.33;;
15931;SDS011;8065;49.520;11.284;2022-08-19T06:23:56;22.37;;;20.27;;
15931;SDS011;8065;49.520;11.284;2022-08-19T06:26:23;21.47;;;19.37;;
15931;SDS011;8065;49.520;11.284;2022-08-19T06:28:51;20.23;;;18.20;;
15931;SDS011;8065;49.520;11.284;2022-08-19T06:31:19;22.73;;;20.53;;
15931;SDS011;8065;49.520;11.284;2022-08-19T06:33:47;19.53;;;17.83;;
15931;SDS011;8065;49.520;11.284;2022-08-19T06:36:19;22.10;;;19.90;;
15931;SDS011;8065;49.520;11.284;2022-08-19T06:38:47;22.43;;;20.27;;
15931;SDS011;8065;49.520;11.284;2022-08-19T06:41:13;22.83;;;20.63;;
15931;SDS011;8065;49.520;11.284;2022-08-19T06:43:40;20.80;;;18.77;;
15931;SDS011;8065;49.520;11.284;2022-08-19T06:46:13;18.30;;;16.60;;
15931;SDS011;8065;49.520;11.284;2022-08-19T06:48:41;18.50;;;16.77;;
15931;SDS011;8065;49.520;11.284;2022-08-19T06:51:07;21.57;;;19.27;;
15931;SDS011;8065;49.520;11.284;2022-08-19T06:53:34;19.90;;;17.87;;
15931;SDS011;8065;49.520;11.284;2022-08-19T06:56:01;19.27;;;17.27;;
15931;SDS011;8065;49.520;11.284;2022-08-19T06:58:28;19.13;;;17.33;;
15931;SDS011;8065;49.520;11.284;2022-08-19T07:00:58;18.70;;;16.90;;
15931;SDS011;8065;49.520;11.284;2022-08-19T07:03:29;19.53;;;16.70;;
15931;SDS011;8065;49.520;11.284;2022-08-19T07:05:57;17.80;;;16.10;;
15931;SDS011;8065;49.520;11.284;2022-08-19T07:08:24;20.47;;;18.50;;
15931;SDS011;8065;49.520;11.284;2022-08-19T07:10:52;19.60;;;17.60;;
15931;SDS011;8065;49.520;11.284;2022-08-19T07:13:19;18.87;;;17.00;;
15931;SDS011;8065;49.520;11.284;2022-08-19T07:15:47;18.23;;;16.37;;
15931;SDS011;8065;49.520;11.284;2022-08-19T07:18:15;18.33;;;16.57;;
15931;SDS011;8065;49.520;11.284;2022-08-19T07:20:43;19.40;;;17.50;;
15931;SDS011;8065;49.520;11.284;2022-08-19T07:23:10;17.33;;;15.63;;
15931;SDS011;8065;49.520;11.284;2022-08-19T07:25:37;15.00;;;13.63;;
15931;SDS011;8065;49.520;11.284;2022-08-19T07:28:04;16.20;;;14.60;;
15931;SDS011;8065;49.520;11.284;2022-08-19T07:30:35;17.87;;;16.10;;
15931;SDS011;8065;49.520;11.284;2022-08-19T07:33:02;14.67;;;13.27;;
15931;SDS011;8065;49.520;11.284;2022-08-19T07:35:29;16.83;;;15.23;;
15931;SDS011;8065;49.520;11.284;2022-08-19T07:37:58;15.53;;;14.07;;
15931;SDS011;8065;49.520;11.284;2022-08-19T07:40:28;14.40;;;12.90;;
15931;SDS011;8065;49.520;11.284;2022-08-19T07:42:54;16.97;;;15.30;;
15931;SDS011;8065;49.520;11.284;2022-08-19T07:45:21;16.30;;;14.73;;
15931;SDS011;8065;49.520;11.284;2022-08-19T07:47:48;16.27;;;14.77;;
15931;SDS011;8065;49.520;11.284;2022-08-19T07:50:15;16.70;;;15.10;;
15931;SDS011;8065;49.520;11.284;2022-08-19T07:52:42;16.27;;;14.67;;
15931;SDS011;8065;49.520;11.284;2022-08-19T07:55:11;17.23;;;15.43;;
15931;SDS011;8065;49.520;11.284;2022-08-19T07:57:37;14.43;;;13.13;;
15931;SDS011;8065;49.520;11.284;2022-08-19T08:00:05;15.00;;;13.70;;
15931;SDS011;8065;49.520;11.284;2022-08-19T08:02:32;16.67;;;15.07;;
15931;SDS011;8065;49.520;11.284;2022-08-19T08:04:59;15.97;;;14.47;;
15931;SDS011;8065;49.520;11.284;2022-08-19T08:07:43;15.43;;;14.03;;
15931;SDS011;8065;49.520;11.284;2022-08-19T08:10:28;13.60;;;12.30;;
15931;SDS011;8065;49.520;11.284;2022-08-19T08:12:55;14.13;;;12.73;;
15931;SDS011;8065;49.520;11.284;2022-08-19T08:15:21;15.27;;;13.77;;
15931;SDS011;8065;49.520;11.284;2022-08-19T08:17:48;17.57;;;15.13;;
15931;SDS011;8065;49.520;11.284;2022-08-19T08:20:14;15.50;;;14.00;;
15931;SDS011;8065;49.520;11.284;2022-08-19T08:22:42;16.97;;;15.17;;
15931;SDS011;8065;49.520;11.284;2022-08-19T08:25:29;17.33;;;15.53;;
15931;SDS011;8065;49.520;11.284;2022-08-19T08:27:57;17.63;;;15.83;;
15931;SDS011;8065;49.520;11.284;2022-08-19T08:30:25;18.73;;;16.73;;
15931;SDS011;8065;49.520;11.284;2022-08-19T08:32:53;17.23;;;15.53;;
15931;SDS011;8065;49.520;11.284;2022-08-19T08:35:21;18.97;;;17.10;;
15931;SDS011;8065;49.520;11.284;2022-08-19T08:37:50;20.17;;;18.03;;
15931;SDS011;8065;49.520;11.284;2022-08-19T08:40:19;19.47;;;17.43;;
15931;SDS011;8065;49.520;11.284;2022-08-19T08:42:51;21.10;;;18.83;;
15931;SDS011;8065;49.520;11.284;2022-08-19T08:45:23;18.23;;;16.33;;
15931;SDS011;8065;49.520;11.284;2022-08-19T08:47:50;20.50;;;18.30;;
15931;SDS011;8065;49.520;11.284;2022-08-19T08:50:22;18.57;;;16.70;;
15931;SDS011;8065;49.520;11.284;2022-08-19T08:52:56;20.30;;;18.20;;
15931;SDS011;8065;49.520;11.284;2022-08-19T08:55:24;19.60;;;16.83;;
15931;SDS011;8065;49.520;11.284;2022-08-19T08:57:55;20.17;;;17.23;;
15931;SDS011;8065;49.520;11.284;2022-08-19T09:00:27;17.93;;;16.03;;
15931;SDS011;8065;49.520;11.284;2022-08-19T09:02:56;20.77;;;18.57;;
15931;SDS011;8065;49.520;11.284;2022-08-19T09:05:25;19.47;;;17.57;;
15931;SDS011;8065;49.520;11.284;2022-08-19T09:08:00;20.43;;;18.37;;
15931;SDS011;8065;49.520;11.284;2022-08-19T09:10:32;21.47;;;19.17;;
15931;SDS011;8065;49.520;11.284;2022-08-19T09:13:07;20.43;;;18.33;;
15931;SDS011;8065;49.520;11.284;2022-08-19T09:15:43;19.90;;;17.80;;
15931;SDS011;8065;49.520;11.284;2022-08-19T09:18:14;19.13;;;17.13;;
15931;SDS011;8065;49.520;11.284;2022-08-19T09:20:41;21.37;;;19.07;;
15931;SDS011;8065;49.520;11.284;2022-08-19T09:23:07;20.00;;;17.90;;
15931;SDS011;8065;49.520;11.284;2022-08-19T09:25:35;19.57;;;17.47;;
15931;SDS011;8065;49.520;11.284;2022-08-19T09:28:06;20.20;;;18.20;;
15931;SDS011;8065;49.520;11.284;2022-08-19T09:30:34;21.73;;;19.50;;
15931;SDS011;8065;49.520;11.284;2022-08-19T09:33:05;21.10;;;18.07;;
15931;SDS011;8065;49.520;11.284;2022-08-19T09:35:32;23.07;;;20.63;;
15931;SDS011;8065;49.520;11.284;2022-08-19T09:38:00;20.57;;;18.47;;
15931;SDS011;8065;49.520;11.284;2022-08-19T09:40:27;20.63;;;18.43;;
15931;SDS011;8065;49.520;11.284;2022-08-19T09:42:54;22.67;;;20.17;;
15931;SDS011;8065;49.520;11.284;2022-08-19T09:45:23;22.57;;;19.50;;
15931;SDS011;8065;49.520;11.284;2022-08-19T09:47:50;23.07;;;20.70;;
15931;SDS011;8065;49.520;11.284;2022-08-19T09:50:18;21.10;;;19.00;;
15931;SDS011;8065;49.520;11.284;2022-08-19T09:52:45;20.90;;;18.70;;
15931;SDS011;8065;49.520;11.284;2022-08-19T09:55:12;21.70;;;18.87;;
15931;SDS011;8065;49.520;11.284;2022-08-19T09:57:39;21.43;;;18.73;;
15931;SDS011;8065;49.520;11.284;2022-08-19T10:00:07;22.87;;;19.37;;
15931;SDS011;8065;49.520;11.284;2022-08-19T10:02:36;22.97;;;19.40;;
15931;SDS011;8065;49.520;11.284;2022-08-19T10:05:03;22.33;;;19.43;;
15931;SDS011;8065;49.520;11.284;2022-08-19T10:07:48;22.57;;;20.10;;
15931;SDS011;8065;49.520;11.284;2022-08-19T10:10:15;20.50;;;18.40;;
15931;SDS011;8065;49.520;11.284;2022-08-19T10:12:41;19.30;;;17.37;;
15931;SDS011;8065;49.520;11.284;2022-08-19T10:15:12;18.70;;;16.77;;
15931;SDS011;8065;49.520;11.284;2022-08-19T10:17:41;19.00;;;17.07;;
15931;SDS011;8065;49.520;11.284;2022-08-19T10:20:08;22.50;;;20.07;;
15931;SDS011;8065;49.520;11.284;2022-08-19T10:22:35;19.07;;;17.07;;
15931;SDS011;8065;49.520;11.284;2022-08-19T10:25:02;17.50;;;15.70;;
15931;SDS011;8065;49.520;11.284;2022-08-19T10:27:30;17.50;;;15.80;;
15931;SDS011;8065;49.520;11.284;2022-08-19T10:29:57;20.73;;;18.60;;
15931;SDS011;8065;49.520;11.284;2022-08-19T10:32:23;22.43;;;20.23;;
15931;SDS011;8065;49.520;11.284;2022-08-19T10:34:51;25.30;;;22.00;;
15931;SDS011;8065;49.520;11.284;2022-08-19T10:37:18;22.50;;;20.20;;
15931;SDS011;8065;49.520;11.284;2022-08-19T10:39:45;25.17;;;22.67;;
15931;SDS011;8065;49.520;11.284;2022-08-19T10:42:12;24.63;;;22.03;;
15931;SDS011;8065;49.520;11.284;2022-08-19T10:44:41;23.33;;;20.93;;
15931;SDS011;8065;49.520;11.284;2022-08-19T10:47:08;25.57;;;22.87;;
15931;SDS011;8065;49.520;11.284;2022-08-19T10:49:35;24.80;;;22.17;;
15931;SDS011;8065;49.520;11.284;2022-08-19T10:52:23;23.90;;;21.47;;
15931;SDS011;8065;49.520;11.284;2022-08-19T10:54:58;24.57;;;21.97;;
15931;SDS011;8065;49.520;11.284;2022-08-19T10:57:42;24.97;;;22.47;;
15931;SDS011;8065;49.520;11.284;2022-08-19T11:00:10;23.47;;;21.07;;
15931;SDS011;8065;49.520;11.284;2022-08-19T11:02:38;26.37;;;23.57;;
15931;SDS011;8065;49.520;11.284;2022-08-19T11:05:05;25.13;;;22.43;;
15931;SDS011;8065;49.520;11.284;2022-08-19T11:07:34;25.43;;;22.37;;
15931;SDS011;8065;49.520;11.284;2022-08-19T11:10:01;25.23;;;22.53;;
15931;SDS011;8065;49.520;11.284;2022-08-19T11:12:27;25.97;;;23.27;;
15931;SDS011;8065;49.520;11.284;2022-08-19T11:14:54;24.27;;;21.83;;
15931;SDS011;8065;49.520;11.284;2022-08-19T11:17:20;25.30;;;22.63;;
15931;SDS011;8065;49.520;11.284;2022-08-19T11:19:48;26.17;;;22.57;;
15931;SDS011;8065;49.520;11.284;2022-08-19T11:22:15;27.33;;;24.37;;
15931;SDS011;8065;49.520;11.284;2022-08-19T11:24:43;26.00;;;23.27;;
15931;SDS011;8065;49.520;11.284;2022-08-19T11:27:10;24.13;;;21.50;;
15931;SDS011;8065;49.520;11.284;2022-08-19T11:29:37;24.43;;;21.10;;
15931;SDS011;8065;49.520;11.284;2022-08-19T11:32:05;24.60;;;22.00;;
15931;SDS011;8065;49.520;11.284;2022-08-19T11:34:34;26.40;;;23.70;;
15931;SDS011;8065;49.520;11.284;2022-08-19T11:37:02;25.00;;;22.57;;
15931;SDS011;8065;49.520;11.284;2022-08-19T11:39:31;25.10;;;22.53;;
15931;SDS011;8065;49.520;11.284;2022-08-19T11:42:01;26.07;;;23.33;;
15931;SDS011;8065;49.520;11.284;2022-08-19T11:44:49;24.23;;;21.73;;
15931;SDS011;8065;49.520;11.284;2022-08-19T11:47:15;25.67;;;22.97;;
15931;SDS011;8065;49.520;11.284;2022-08-19T11:49:42;28.40;;;25.50;;
15931;SDS011;8065;49.520;11.284;2022-08-19T11:52:09;30.23;;;26.03;;
15931;SDS011;8065;49.520;11.284;2022-08-19T11:54:35;28.43;;;25.43;;
15931;SDS011;8065;49.520;11.284;2022-08-19T11:57:03;30.30;;;26.50;;
15931;SDS011;8065;49.520;11.284;2022-08-19T11:59:30;27.90;;;25.00;;
15931;SDS011;8065;49.520;11.284;2022-08-19T12:01:56;23.70;;;21.30;;
15931;SDS011;8065;49.520;11.284;2022-08-19T12:04:24;26.60;;;23.80;;
15931;SDS011;8065;49.520;11.284;2022-08-19T12:06:50;26.63;;;23.93;;
15931;SDS011;8065;49.520;11.284;2022-08-19T12:09:17;24.73;;;22.20;;
15931;SDS011;8065;49.520;11.284;2022-08-19T12:11:43;24.83;;;22.23;;
15931;SDS011;8065;49.520;11.284;2022-08-19T12:14:12;23.17;;;20.90;;
15931;SDS011;8065;49.520;11.284;2022-08-19T12:16:39;26.03;;;23.23;;
15931;SDS011;8065;49.520;11.284;2022-08-19T12:19:07;24.50;;;21.73;;
15931;SDS011;8065;49.520;11.284;2022-08-19T12:21:34;25.17;;;22.57;;
15931;SDS011;8065;49.520;11.284;2022-08-19T12:24:02;23.97;;;21.57;;
15931;SDS011;8065;49.520;11.284;2022-08-19T12:26:32;22.27;;;20.07;;
15931;SDS011;8065;49.520;11.284;2022-08-19T12:28:59;23.37;;;20.97;;
15931;SDS011;8065;49.520;11.284;2022-08-19T12:31:27;23.13;;;20.67;;
15931;SDS011;8065;49.520;11.284;2022-08-19T12:33:54;21.07;;;18.93;;
15931;SDS011;8065;49.520;11.284;2022-08-19T12:36:21;20.93;;;18.53;;
15931;SDS011;8065;49.520;11.284;2022-08-19T12:38:49;22.53;;;20.20;;
15931;SDS011;8065;49.520;11.284;2022-08-19T12:41:17;23.07;;;20.07;;
15931;SDS011;8065;49.520;11.284;2022-08-19T12:43:46;20.27;;;18.27;;
15931;SDS011;8065;49.520;11.284;2022-08-19T12:46:13;19.90;;;18.00;;
15931;SDS011;8065;49.520;11.284;2022-08-19T12:48:41;20.83;;;18.73;;
15931;SDS011;8065;49.520;11.284;2022-08-19T12:51:10;20.80;;;18.70;;
15931;SDS011;8065;49.520;11.284;2022-08-19T12:53:38;19.40;;;17.43;;
15931;SDS011;8065;49.520;11.284;2022-08-19T12:56:05;18.90;;;17.10;;
15931;SDS011;8065;49.520;11.284;2022-08-19T12:58:32;20.23;;;18.20;;
15931;SDS011;8065;49.520;11.284;2022-08-19T13:00:59;17.27;;;15.60;;
15931;SDS011;8065;49.520;11.284;2022-08-19T13:03:26;20.97;;;18.93;;
15931;SDS011;8065;49.520;11.284;2022-08-19T13:05:55;21.20;;;19.00;;
15931;SDS011;8065;49.520;11.284;2022-08-19T13:08:22;20.27;;;18.37;;
15931;SDS011;8065;49.520;11.284;2022-08-19T13:10:49;18.50;;;16.73;;
15931;SDS011;8065;49.520;11.284;2022-08-19T13:13:15;18.93;;;17.13;;
15931;SDS011;8065;49.520;11.284;2022-08-19T13:15:42;19.13;;;17.27;;
15931;SDS011;8065;49.520;11.284;2022-08-19T13:18:10;20.10;;;18.20;;
15931;SDS011;8065;49.520;11.284;2022-08-19T13:20:39;18.53;;;16.83;;
15931;SDS011;8065;49.520;11.284;2022-08-19T13:23:08;19.57;;;17.70;;
15931;SDS011;8065;49.520;11.284;2022-08-19T13:25:35;20.03;;;18.03;;
15931;SDS011;8065;49.520;11.284;2022-08-19T13:28:02;21.70;;;19.37;;
15931;SDS011;8065;49.520;11.284;2022-08-19T13:30:28;21.30;;;19.20;;
15931;SDS011;8065;49.520;11.284;2022-08-19T13:33:13;22.60;;;20.33;;
15931;SDS011;8065;49.520;11.284;2022-08-19T13:35:41;21.73;;;19.57;;
15931;SDS011;8065;49.520;11.284;2022-08-19T13:38:11;23.33;;;21.03;;
15931;SDS011;8065;49.520;11.284;2022-08-19T13:40:38;20.70;;;18.73;;
15931;SDS011;8065;49.520;11.284;2022-08-19T13:43:06;24.30;;;21.80;;
15931;SDS011;8065;49.520;11.284;2022-08-19T13:45:34;23.13;;;20.83;;
15931;SDS011;8065;49.520;11.284;2022-08-19T13:48:02;24.53;;;21.93;;
15931;SDS011;8065;49.520;11.284;2022-08-19T13:50:31;19.53;;;17.63;;
15931;SDS011;8065;49.520;11.284;2022-08-19T13:52:59;18.30;;;16.47;;
15931;SDS011;8065;49.520;11.284;2022-08-19T13:55:28;19.00;;;17.20;;
15931;SDS011;8065;49.520;11.284;2022-08-19T13:57:55;20.10;;;17.60;;
15931;SDS011;8065;49.520;11.284;2022-08-19T14:00:23;18.83;;;16.83;;
15931;SDS011;8065;49.520;11.284;2022-08-19T14:02:51;16.20;;;14.60;;
15931;SDS011;8065;49.520;11.284;2022-08-19T14:05:19;17.10;;;15.43;;
15931;SDS011;8065;49.520;11.284;2022-08-19T14:07:47;12.17;;;10.97;;
15931;SDS011;8065;49.520;11.284;2022-08-19T14:10:14;12.00;;;10.80;;
15931;SDS011;8065;49.520;11.284;2022-08-19T14:12:43;12.63;;;11.00;;
15931;SDS011;8065;49.520;11.284;2022-08-19T14:15:10;10.50;;;9.50;;
15931;SDS011;8065;49.520;11.284;2022-08-19T14:17:38;11.07;;;9.87;;
15931;SDS011;8065;49.520;11.284;2022-08-19T14:20:07;11.53;;;10.33;;
15931;SDS011;8065;49.520;11.284;2022-08-19T14:22:36;11.67;;;10.47;;
15931;SDS011;8065;49.520;11.284;2022-08-19T14:25:04;11.13;;;9.97;;
15931;SDS011;8065;49.520;11.284;2022-08-19T14:27:32;12.00;;;10.80;;